Aérodrome :
LOGIN :

S'inscrire | Disclaimer

   EN    FR    IT 

 










Légende :    VFR   VFR Marginal   IFR   IFR Intensif   IFR Très Intensif
Visi : 
Plafond : 
>= 8 km
>= 3000ft
5 à 8 km
1000 à 3000 ft
1500m à 5 km
500 à 1000 ft
800 à 1500m
200 à 500 ft
< 800m
< 200 ft
Symboles :   Orages  Brouillard  Fortes neiges  Fortes précipitations  Vent > 20 kt
SIGMETs :   Divers  Orages  Givrage  Turbulence  Onde Orograph.  Cendres Volcan.







- Altitude de l'aérodrome : 102 ft
- Code IATA : EXT
- Voir les cartes d'approche


EGTE - Exeter

DERNIER METAR :
  • 241020Z 27006KT 240V300 5000 HZ BKN009 19/16 Q1016

METARs EXPIRÉS :
  • 240950Z 29006KT 250V320 5000 HZ BKN008 17/15 Q1016
  • 240920Z 29005KT 250V320 4000 HZ BKN007 17/16 Q1016
  • 240850Z 30006KT 260V340 3500 HZ BKN007 17/15 Q1016
  • 240820Z 28005KT 240V320 4000 BR SCT005 16/15 Q1015
  • 240750Z 27007KT 240V300 3000 BR SCT005 15/15 Q1015

TAF AMD TAF EGTE
Valide du 24 à 09h jusqu'au 24 à 18h UTC


240907Z 2409/2418 30005KT 4000 BR BKN007
BECMG 2409/2412 9999 NSW SCT035
Pas de NOTAMs connus pour ce terrain.
1 SIGMET publié pour la FIR London (EGTT) :
 
Orages noyés dans la masse
EGTT SIGMET 04 VALID 241040/241400 EGRR
EGTT LONDON FIR EMBD TS FCST WI N5402 W00239 - N5356 W00107 - N5247 W00122 - N5257 W00249 - N5402 W00239 TOP FL300 MOV NNE 20KT INTSF=



MET'MAP, la Météo Aéronautique d'un coup d'oeil ! - Copyright ORBIFLY Décembre 2007 - Disclaimer

ORBIFLY MET'MAP TEAM :

Programmation & Développement : Alexandra Zaïnal
Conception & Développement : Baudouin d'Aumeries
Co-Programmation & Développement : Marc-Olivier Méhu
Soutien technique & logistique : Manuel Goepfert

Contact : metmap@orbifly.com




SOURCES & CREDITS :

   NOAA